createdAt,value
2023-02-02T00:05:01.424Z,2.40
2023-02-02T00:12:03.073Z,2.72
2023-02-02T00:19:18.502Z,2.78
2023-02-02T00:26:20.232Z,2.58
2023-02-02T00:33:21.764Z,2.88
2023-02-02T00:40:23.341Z,3.17
2023-02-02T00:47:25.263Z,3.08
2023-02-02T00:54:27.136Z,3.47
2023-02-02T01:01:28.774Z,4.40
2023-02-02T01:08:30.389Z,2.67
2023-02-02T01:15:31.938Z,2.70
2023-02-02T01:22:38.431Z,2.80
2023-02-02T01:29:40.002Z,1.85
2023-02-02T01:36:41.580Z,2.55
2023-02-02T01:43:43.155Z,2.28
2023-02-02T01:50:44.729Z,1.58
2023-02-02T01:58:11.136Z,2.22
2023-02-02T02:05:12.644Z,2.80
2023-02-02T02:12:15.481Z,2.25
2023-02-02T02:19:35.744Z,1.73
2023-02-02T02:26:54.438Z,2.50
2023-02-02T02:34:16.031Z,2.50
2023-02-02T02:41:20.808Z,2.40
2023-02-02T02:48:22.453Z,3.05
2023-02-02T02:55:25.050Z,3.08
2023-02-02T03:02:41.731Z,2.60
2023-02-02T03:09:43.277Z,2.92
2023-02-02T03:16:44.796Z,2.20
2023-02-02T03:23:46.315Z,2.10
2023-02-02T03:30:47.911Z,1.95
2023-02-02T03:37:49.541Z,2.33
2023-02-02T03:44:51.119Z,2.08
2023-02-02T03:51:52.651Z,2.05
2023-02-02T03:58:54.169Z,2.05
2023-02-02T04:05:55.683Z,1.50
2023-02-02T04:12:57.323Z,1.48
2023-02-02T04:19:59.252Z,2.13
2023-02-02T04:27:00.935Z,2.25
2023-02-02T04:34:02.642Z,2.25
2023-02-02T04:41:08.150Z,2.30
2023-02-02T04:48:09.807Z,1.90
2023-02-02T04:55:11.602Z,1.73
2023-02-02T05:02:13.153Z,2.40
2023-02-02T05:09:15.404Z,2.30
2023-02-02T05:16:18.106Z,2.97
2023-02-02T05:23:19.893Z,2.08
2023-02-02T05:30:21.642Z,1.98
2023-02-02T05:37:23.279Z,2.58
2023-02-02T05:44:24.945Z,2.35
2023-02-02T05:51:29.837Z,1.88
2023-02-02T05:58:31.504Z,2.72
2023-02-02T06:05:33.463Z,2.38
2023-02-02T06:12:35.000Z,1.98
2023-02-02T06:19:36.556Z,2.22
2023-02-02T06:26:38.167Z,3.08
2023-02-02T06:33:40.139Z,2.72
2023-02-02T06:40:41.687Z,3.30
2023-02-02T06:47:43.403Z,2.60
2023-02-02T06:54:44.988Z,2.53
2023-02-02T07:01:51.561Z,2.10
2023-02-02T07:09:01.774Z,2.50
2023-02-02T07:16:05.032Z,1.88
2023-02-02T07:23:06.719Z,3.10
2023-02-02T07:30:09.193Z,2.30
2023-02-02T07:37:10.921Z,2.20
2023-02-02T07:44:15.337Z,2.70
2023-02-02T07:51:18.133Z,2.55
2023-02-02T07:58:19.741Z,1.95
2023-02-02T08:05:22.789Z,2.80
2023-02-02T08:12:26.435Z,1.60
2023-02-02T08:19:28.053Z,2.55
2023-02-02T08:26:30.191Z,2.70
2023-02-02T08:33:31.830Z,2.20
2023-02-02T08:40:33.545Z,2.42
2023-02-02T08:47:35.235Z,1.73
2023-02-02T08:54:37.020Z,3.22
2023-02-02T09:01:38.582Z,2.30
2023-02-02T09:08:40.579Z,2.47
2023-02-02T09:15:42.541Z,2.90
2023-02-02T09:22:47.385Z,2.70
2023-02-02T09:29:49.272Z,2.28
2023-02-02T09:36:51.984Z,2.30
2023-02-02T09:44:26.431Z,2.10
2023-02-02T09:51:31.416Z,2.22
2023-02-02T09:58:48.423Z,2.53
2023-02-02T10:05:57.933Z,2.55
2023-02-02T10:13:04.775Z,2.50
2023-02-02T10:20:40.512Z,2.50
2023-02-02T10:27:46.147Z,1.98
2023-02-02T10:35:11.087Z,2.05
2023-02-02T10:42:31.154Z,1.55
2023-02-02T10:49:34.117Z,1.85
2023-02-02T10:56:38.013Z,1.63
2023-02-02T11:03:40.180Z,1.40
2023-02-02T11:10:43.608Z,1.80
2023-02-02T11:17:45.153Z,1.77
2023-02-02T11:24:47.799Z,2.08
2023-02-02T11:31:49.342Z,2.35
2023-02-02T11:39:16.269Z,1.30
2023-02-02T11:46:23.606Z,1.75
2023-02-02T11:53:36.685Z,1.80
2023-02-02T12:00:51.731Z,1.75
2023-02-02T12:07:59.846Z,2.07
2023-02-02T12:15:20.185Z,1.92
2023-02-02T12:22:51.065Z,1.85
2023-02-02T12:30:11.418Z,1.63
2023-02-02T12:37:47.508Z,1.40
2023-02-02T12:44:56.220Z,1.80
2023-02-02T12:52:03.374Z,1.92
2023-02-02T12:59:31.153Z,1.75
2023-02-02T13:06:52.347Z,2.97
2023-02-02T13:13:53.865Z,2.30
2023-02-02T13:21:00.764Z,1.95
2023-02-02T13:28:02.429Z,1.30
2023-02-02T13:35:22.022Z,2.00
2023-02-02T13:42:55.919Z,1.60
2023-02-02T13:50:03.921Z,1.80
2023-02-02T13:57:11.303Z,1.95
2023-02-02T14:04:26.470Z,1.40
2023-02-02T14:11:30.753Z,1.80
2023-02-02T14:18:56.955Z,1.20
2023-02-02T14:26:06.315Z,2.08
2023-02-02T14:33:37.105Z,1.60
2023-02-02T14:48:07.212Z,1.70
2023-02-02T14:55:27.283Z,1.67
2023-02-02T15:02:29.095Z,1.83
2023-02-02T15:09:37.274Z,1.67
2023-02-02T15:16:38.840Z,1.52
2023-02-02T15:23:42.012Z,5.35
2023-02-02T15:30:44.961Z,2.08
2023-02-02T15:37:49.326Z,1.88
2023-02-02T15:44:50.828Z,2.40
2023-02-02T15:51:53.422Z,1.95
2023-02-02T15:58:56.547Z,1.85
2023-02-02T16:05:58.122Z,1.70
2023-02-02T16:12:59.666Z,2.10
2023-02-02T16:20:13.139Z,1.80
2023-02-02T16:27:19.126Z,2.42
2023-02-02T16:34:38.946Z,2.35
2023-02-02T16:41:40.505Z,1.93
2023-02-02T16:48:45.918Z,1.65
2023-02-02T16:55:50.845Z,2.13
2023-02-02T17:03:06.608Z,2.20
2023-02-02T17:10:17.295Z,2.42
2023-02-02T17:24:20.479Z,2.22
2023-02-02T17:31:22.248Z,2.13
2023-02-02T17:38:24.425Z,2.15
2023-02-02T17:45:34.157Z,2.13
2023-02-02T17:52:38.216Z,2.70
2023-02-02T17:59:39.749Z,3.05
2023-02-02T18:06:41.341Z,2.45
2023-02-02T18:13:43.427Z,3.25
2023-02-02T18:20:46.601Z,3.38
2023-02-02T18:27:50.517Z,2.53
2023-02-02T18:34:55.602Z,3.22
2023-02-02T18:41:57.539Z,3.47
2023-02-02T18:48:59.135Z,2.88
2023-02-02T18:56:05.278Z,2.47
2023-02-02T19:03:06.918Z,3.97
2023-02-02T19:10:08.840Z,2.70
2023-02-02T19:17:24.392Z,2.60
2023-02-02T19:24:26.789Z,3.72
2023-02-02T19:31:28.523Z,6.68
2023-02-02T19:38:30.223Z,7.22
2023-02-02T19:45:32.841Z,4.90
2023-02-02T19:52:34.575Z,4.50
2023-02-02T19:59:36.196Z,4.45
2023-02-02T20:06:52.615Z,5.50
2023-02-02T20:13:59.756Z,5.28
2023-02-02T20:21:01.320Z,5.47
2023-02-02T20:28:05.217Z,5.53
2023-02-02T20:35:37.068Z,4.25
2023-02-02T20:42:38.732Z,3.88
2023-02-02T20:49:40.278Z,4.53
2023-02-02T20:56:41.872Z,4.68
2023-02-02T21:03:43.399Z,6.65
2023-02-02T21:10:44.936Z,4.10
2023-02-02T21:17:46.610Z,5.28
2023-02-02T21:24:48.216Z,7.97
2023-02-02T21:31:49.908Z,3.88
2023-02-02T21:38:51.470Z,5.28
2023-02-02T21:45:53.233Z,5.20
2023-02-02T21:53:21.467Z,4.13
2023-02-02T22:00:28.355Z,4.07
2023-02-02T22:07:30.573Z,5.85
2023-02-02T22:14:34.912Z,4.35
2023-02-02T22:21:36.456Z,4.00
2023-02-02T22:28:39.826Z,4.10
2023-02-02T22:35:41.925Z,3.75
2023-02-02T22:42:43.682Z,3.53
2023-02-02T22:49:45.205Z,4.28
2023-02-02T22:56:46.720Z,3.85
2023-02-02T23:03:49.487Z,3.50
2023-02-02T23:10:51.045Z,4.00
2023-02-02T23:17:53.001Z,3.45
2023-02-02T23:24:54.587Z,3.72
2023-02-02T23:31:56.141Z,3.70
2023-02-02T23:38:57.668Z,3.83
2023-02-02T23:46:00.143Z,3.85
2023-02-02T23:53:01.788Z,3.28
